Kiamika, Canada
Current Conditions -  °F | °C
As of 12:00 PM on Thursday 27 Nov 2014 (Local Time) from CYND Reporting Station
Overcast Overcast  
Wind Chill: -8°   Ceiling: 2800
Heat Index: -3°   Visibility: 15mi
Dew Point: -9°   Wind: 9mph
Humidity: 64%   Direction: 310°NW
Pressure: 30.05"   Gusts: NA
Location:  46.42°N, 75.37°W
Report Text: CYND 271700Z 31008KT 15SM OVC028 M03/M09 A3005 RMK SC8 SLP180
Loading
Personal Weather Stations






























Interactive Weather Map New forecast layout! Learn more

10-Day Weather Forecast

Advertisements
Track Severe Weather on mobile